createdAt,value
2022-12-17T00:00:04.402Z,101811.00
2022-12-17T00:05:26.744Z,101819.69
2022-12-17T00:10:46.819Z,101821.81
2022-12-17T00:16:11.112Z,101831.53
2022-12-17T00:21:32.760Z,101847.50
2022-12-17T00:26:53.404Z,101849.03
2022-12-17T00:32:14.181Z,101846.50
2022-12-17T00:37:35.799Z,101850.94
2022-12-17T00:42:56.337Z,101856.72
2022-12-17T00:48:16.797Z,101861.81
2022-12-17T00:53:35.151Z,101871.22
2022-12-17T00:58:55.101Z,101876.44
2022-12-17T01:04:20.714Z,101890.47
2022-12-17T01:09:43.238Z,101881.81
2022-12-17T01:15:04.274Z,101885.38
2022-12-17T01:20:25.970Z,101893.34
2022-12-17T01:25:48.188Z,101897.75
2022-12-17T01:31:11.679Z,101904.63
2022-12-17T01:36:31.968Z,101911.31
2022-12-17T01:41:53.437Z,101925.53
2022-12-17T01:47:13.950Z,101919.31
2022-12-17T01:52:35.019Z,101917.31
2022-12-17T01:57:57.263Z,101918.84
2022-12-17T02:03:18.452Z,101915.72
2022-12-17T02:08:49.257Z,101921.25
2022-12-17T02:14:22.407Z,101927.56
2022-12-17T02:19:54.001Z,101928.78
2022-12-17T02:25:20.709Z,101917.47
2022-12-17T02:30:43.692Z,101922.25
2022-12-17T02:36:12.574Z,101912.28
2022-12-17T02:41:35.931Z,101919.28
2022-12-17T02:47:11.911Z,101935.88
2022-12-17T02:52:36.420Z,101942.84
2022-12-17T02:57:56.603Z,101936.22
2022-12-17T03:03:18.246Z,101943.28
2022-12-17T03:08:38.524Z,101934.94
2022-12-17T03:13:59.751Z,101941.66
2022-12-17T03:19:22.441Z,101956.53
2022-12-17T03:24:43.159Z,101955.94
2022-12-17T03:30:03.691Z,101964.72
2022-12-17T03:35:25.411Z,101961.03
2022-12-17T03:40:45.786Z,101959.25
2022-12-17T03:46:10.594Z,101972.34
2022-12-17T03:51:32.068Z,101964.06
2022-12-17T03:56:52.576Z,101975.28
2022-12-17T04:02:12.864Z,101971.81
2022-12-17T04:07:34.883Z,101970.47
2022-12-17T04:12:54.931Z,101971.91
2022-12-17T04:18:15.552Z,101967.88
2022-12-17T04:23:37.143Z,101968.53
2022-12-17T04:28:57.460Z,101973.19
2022-12-17T04:34:17.622Z,101973.69
2022-12-17T04:39:39.162Z,101979.03
2022-12-17T04:44:59.374Z,101978.84
2022-12-17T04:50:19.907Z,101978.41
2022-12-17T04:55:41.302Z,101984.13
2022-12-17T05:01:01.782Z,101990.09
2022-12-17T05:06:31.584Z,101986.63
2022-12-17T05:11:53.281Z,101996.66
2022-12-17T05:17:13.517Z,101998.78
2022-12-17T05:22:33.849Z,102005.94
2022-12-17T05:27:56.497Z,102006.81
2022-12-17T05:33:18.200Z,102010.09
2022-12-17T05:38:51.523Z,102021.75
2022-12-17T05:44:14.349Z,102014.63
2022-12-17T05:49:34.380Z,102014.41
2022-12-17T05:54:54.919Z,102016.44
2022-12-17T06:00:16.771Z,102014.81
2022-12-17T06:05:36.922Z,102015.88
2022-12-17T06:10:57.162Z,102015.94
2022-12-17T06:16:18.887Z,102026.44
2022-12-17T06:21:40.393Z,102032.72
2022-12-17T06:27:00.837Z,102039.16
2022-12-17T06:32:23.029Z,102051.41
2022-12-17T06:37:43.589Z,102042.13
2022-12-17T06:43:11.786Z,102050.44
2022-12-17T06:48:33.309Z,102053.41
2022-12-17T06:53:53.974Z,102060.31
2022-12-17T06:59:14.379Z,102056.72
2022-12-17T07:04:36.853Z,102064.97
2022-12-17T07:09:57.347Z,102073.00
2022-12-17T07:15:35.024Z,102089.06
2022-12-17T07:20:56.867Z,102086.50
2022-12-17T07:26:17.122Z,102095.22
2022-12-17T07:31:37.428Z,102103.75
2022-12-17T07:36:59.446Z,102111.59
2022-12-17T07:42:19.660Z,102104.72
2022-12-17T07:47:40.033Z,102118.06
2022-12-17T07:53:10.234Z,102125.22
2022-12-17T07:58:34.591Z,102130.03
2022-12-17T08:04:12.877Z,102126.53
2022-12-17T08:15:47.587Z,102145.09
2022-12-17T08:21:08.819Z,102147.63
2022-12-17T08:26:42.091Z,102154.34
2022-12-17T08:32:06.348Z,102165.56
2022-12-17T08:37:26.484Z,102170.63
2022-12-17T08:42:48.621Z,102189.06
2022-12-17T08:48:08.950Z,102177.91
2022-12-17T08:53:34.563Z,102188.63
2022-12-17T08:58:59.283Z,102197.63
2022-12-17T09:04:20.269Z,102204.22
2022-12-17T09:09:40.587Z,102204.13
2022-12-17T09:15:17.541Z,102210.41
2022-12-17T09:20:39.189Z,102205.91
2022-12-17T09:25:59.343Z,102211.91
2022-12-17T09:31:20.804Z,102199.69
2022-12-17T09:36:41.161Z,102196.09
2022-12-17T09:42:10.217Z,102199.84
2022-12-17T09:47:50.443Z,102201.72
2022-12-17T09:53:11.283Z,102200.28
2022-12-17T09:58:38.308Z,102209.72
2022-12-17T10:04:07.795Z,102226.53
2022-12-17T10:09:31.779Z,102216.09
2022-12-17T10:14:52.099Z,102214.56
2022-12-17T10:20:14.429Z,102224.19
2022-12-17T10:25:36.815Z,102221.53
2022-12-17T10:30:57.554Z,102221.56
2022-12-17T10:36:18.994Z,102222.69
2022-12-17T10:41:42.713Z,102224.94
2022-12-17T10:53:06.631Z,102234.94
2022-12-17T10:58:32.411Z,102224.69
2022-12-17T11:04:05.659Z,102230.13
2022-12-17T11:09:41.523Z,102226.06
2022-12-17T11:15:09.326Z,102230.81
2022-12-17T11:20:41.581Z,102229.19
2022-12-17T11:26:11.642Z,102220.88
2022-12-17T11:31:53.891Z,102216.16
2022-12-17T11:37:20.320Z,102216.56
2022-12-17T11:42:49.281Z,102218.00
2022-12-17T11:48:13.005Z,102210.88
2022-12-17T11:53:48.807Z,102218.56
2022-12-17T11:59:14.039Z,102216.56
2022-12-17T12:04:52.337Z,102226.88
2022-12-17T12:10:18.115Z,102225.75
2022-12-17T12:15:48.345Z,102224.00
2022-12-17T12:21:29.791Z,102227.56
2022-12-17T12:26:59.541Z,102228.16
2022-12-17T12:32:42.796Z,102222.84
2022-12-17T12:38:03.772Z,102233.50
2022-12-17T12:43:33.513Z,102226.91
2022-12-17T12:49:02.065Z,102225.13
2022-12-17T12:54:46.908Z,102231.44
2022-12-17T13:00:04.500Z,102240.50
2022-12-17T13:05:35.581Z,102237.44
2022-12-17T13:10:38.672Z,102242.63
2022-12-17T13:15:47.895Z,102242.63
2022-12-17T13:21:01.427Z,102240.63
2022-12-17T13:26:23.659Z,102242.03
2022-12-17T13:31:28.620Z,102242.25
2022-12-17T13:36:40.297Z,102240.84
2022-12-17T13:41:43.160Z,102240.84
2022-12-17T13:46:48.175Z,102250.59
2022-12-17T13:52:09.632Z,102259.44
2022-12-17T13:57:16.420Z,102252.53
2022-12-17T14:02:26.657Z,102271.16
2022-12-17T14:07:34.337Z,102268.38
2022-12-17T14:12:37.217Z,102275.81
2022-12-17T14:17:46.044Z,102269.25
2022-12-17T14:22:52.390Z,102277.50
2022-12-17T14:27:57.756Z,102292.31
2022-12-17T14:33:00.703Z,102291.69
2022-12-17T14:38:05.630Z,102291.75
2022-12-17T14:43:08.618Z,102300.56
2022-12-17T14:48:16.538Z,102299.81
2022-12-17T14:53:28.384Z,102290.94
2022-12-17T14:58:32.075Z,102305.00
2022-12-17T15:03:40.886Z,102301.78
2022-12-17T15:08:47.261Z,102305.78
2022-12-17T15:13:54.549Z,102313.97
2022-12-17T15:19:00.544Z,102303.72
2022-12-17T15:24:05.253Z,102308.22
2022-12-17T15:29:07.982Z,102309.75
2022-12-17T15:34:12.277Z,102315.13
2022-12-17T15:39:17.129Z,102314.63
2022-12-17T15:44:19.880Z,102311.50
2022-12-17T15:49:22.795Z,102311.06
2022-12-17T15:54:26.958Z,102315.94
2022-12-17T15:59:29.899Z,102321.34
2022-12-17T16:04:32.664Z,102326.50
2022-12-17T16:09:36.768Z,102326.53
2022-12-17T16:14:39.684Z,102333.34
2022-12-17T16:19:42.675Z,102329.66
2022-12-17T16:24:47.232Z,102335.41
2022-12-17T16:29:50.306Z,102340.75
2022-12-17T16:34:53.230Z,102341.63
2022-12-17T16:40:00.143Z,102342.84
2022-12-17T16:45:03.359Z,102338.22
2022-12-17T16:50:06.936Z,102341.25
2022-12-17T16:55:11.278Z,102343.34
2022-12-17T17:00:15.073Z,102346.72
2022-12-17T17:05:17.864Z,102350.00
2022-12-17T17:10:22.119Z,102349.69
2022-12-17T17:15:24.923Z,102346.03
2022-12-17T17:20:27.748Z,102359.00
2022-12-17T17:25:54.205Z,102368.97
2022-12-17T17:30:59.954Z,102378.03
2022-12-17T17:36:07.135Z,102381.00
2022-12-17T17:41:14.088Z,102379.50
2022-12-17T17:46:19.852Z,102386.00
2022-12-17T17:51:52.065Z,102393.25
2022-12-17T17:56:49.453Z,102390.75
2022-12-17T18:01:52.924Z,102396.69
2022-12-17T18:12:38.560Z,102405.91
2022-12-17T18:17:41.439Z,102408.22
2022-12-17T18:22:45.849Z,102408.06
2022-12-17T18:27:52.911Z,102416.56
2022-12-17T18:32:56.103Z,102423.69
2022-12-17T18:38:00.580Z,102419.03
2022-12-17T18:43:22.232Z,102426.72
2022-12-17T18:48:25.319Z,102434.56
2022-12-17T18:53:28.257Z,102437.97
2022-12-17T18:58:32.476Z,102441.03
2022-12-17T19:03:35.313Z,102443.09
2022-12-17T19:08:40.535Z,102448.19
2022-12-17T19:13:53.304Z,102453.94
2022-12-17T19:18:58.238Z,102452.56
2022-12-17T19:24:02.901Z,102466.34
2022-12-17T19:29:08.472Z,102473.28
2022-12-17T19:34:13.187Z,102477.22
2022-12-17T19:39:17.919Z,102479.28
2022-12-17T19:44:22.193Z,102465.69
2022-12-17T19:49:24.995Z,102459.47
2022-12-17T19:54:27.780Z,102465.91
2022-12-17T19:59:32.003Z,102470.97
2022-12-17T20:04:34.978Z,102479.50
2022-12-17T20:09:37.799Z,102479.69
2022-12-17T20:14:42.008Z,102484.31
2022-12-17T20:19:44.938Z,102475.81
2022-12-17T20:24:47.740Z,102485.94
2022-12-17T20:29:51.956Z,102496.06
2022-12-17T20:34:54.892Z,102503.88
2022-12-17T20:39:58.008Z,102494.69
2022-12-17T20:45:02.328Z,102485.69
2022-12-17T20:50:05.929Z,102487.31
2022-12-17T20:55:09.282Z,102491.22
2022-12-17T21:00:14.209Z,102498.16
2022-12-17T21:05:17.998Z,102502.53
2022-12-17T21:10:20.868Z,102509.66
2022-12-17T21:15:48.877Z,102503.88
2022-12-17T21:20:59.201Z,102515.41
2022-12-17T21:26:08.595Z,102515.88
2022-12-17T21:31:19.361Z,102520.47
2022-12-17T21:36:26.103Z,102527.84
2022-12-17T21:41:30.758Z,102526.94
2022-12-17T21:46:35.518Z,102533.84
2022-12-17T21:51:38.983Z,102544.66
2022-12-17T21:56:41.970Z,102546.00
2022-12-17T22:01:49.164Z,102542.16
2022-12-17T22:07:17.387Z,102538.69
2022-12-17T22:12:39.427Z,102544.19
2022-12-17T22:17:44.981Z,102545.31
2022-12-17T22:22:49.150Z,102554.97
2022-12-17T22:27:52.100Z,102553.13
2022-12-17T22:33:02.754Z,102542.31
2022-12-17T22:40:37.943Z,102543.97
2022-12-17T22:44:44.079Z,102551.69
2022-12-17T22:49:03.226Z,102549.41
2022-12-17T22:54:07.363Z,102554.53
2022-12-17T22:59:15.928Z,102545.75
2022-12-17T23:04:21.294Z,102552.06
2022-12-17T23:09:24.152Z,102548.69
2022-12-17T23:14:27.036Z,102551.94
2022-12-17T23:19:31.235Z,102548.56
2022-12-17T23:24:36.206Z,102553.78
2022-12-17T23:29:38.974Z,102554.88
2022-12-17T23:34:43.640Z,102558.97
2022-12-17T23:39:46.509Z,102555.28
2022-12-17T23:44:49.299Z,102551.06
2022-12-17T23:49:53.644Z,102558.63
2022-12-17T23:54:56.478Z,102567.19
2022-12-17T23:59:59.466Z,102561.25
